createdAt,value
2017-11-13T00:00:52.652Z,0
2017-11-13T00:01:52.294Z,0
2017-11-13T00:02:52.305Z,0
2017-11-13T00:03:52.580Z,0
2017-11-13T00:04:52.562Z,0
2017-11-13T00:05:52.559Z,0
2017-11-13T00:06:52.212Z,0
2017-11-13T00:07:52.504Z,0
2017-11-13T00:08:52.491Z,0
2017-11-13T00:09:52.821Z,0
2017-11-13T00:10:52.133Z,0
2017-11-13T00:11:52.780Z,0
2017-11-13T00:12:52.758Z,0
2017-11-13T00:13:52.749Z,0
2017-11-13T00:14:52.387Z,0
2017-11-13T00:15:52.387Z,0
2017-11-13T00:16:52.006Z,0
2017-11-13T00:17:52.734Z,0
2017-11-13T00:18:51.988Z,0
2017-11-13T00:19:51.957Z,0
2017-11-13T00:20:52.305Z,0
2017-11-13T00:21:52.265Z,0
2017-11-13T00:22:51.557Z,0
2017-11-13T00:23:52.223Z,0
2017-11-13T00:24:51.878Z,0
2017-11-13T00:25:52.552Z,0
2017-11-13T00:26:52.524Z,0
2017-11-13T00:27:51.845Z,0
2017-11-13T00:28:52.481Z,0
2017-11-13T00:29:51.439Z,0
2017-11-13T00:30:52.468Z,0
2017-11-13T00:31:51.747Z,0
2017-11-13T00:32:52.077Z,0
2017-11-13T00:33:52.396Z,0
2017-11-13T00:34:51.710Z,0
2017-11-13T00:35:52.023Z,0
2017-11-13T00:36:51.649Z,0
2017-11-13T00:37:51.638Z,0
2017-11-13T00:38:52.710Z,0
2017-11-13T00:39:51.945Z,0
2017-11-13T00:40:51.587Z,0
2017-11-13T00:41:51.565Z,0
2017-11-13T00:42:51.225Z,0
2017-11-13T00:43:51.892Z,0
2017-11-13T00:44:51.862Z,0
2017-11-13T00:45:51.844Z,0
2017-11-13T00:46:51.821Z,0
2017-11-13T00:47:52.160Z,0
2017-11-13T00:48:51.802Z,0
2017-11-13T00:49:51.458Z,0
2017-11-13T00:50:51.757Z,0
2017-11-13T00:51:52.085Z,0
2017-11-13T00:52:51.383Z,0
2017-11-13T00:53:51.365Z,0
2017-11-13T00:54:51.700Z,0
2017-11-13T00:55:51.669Z,0
2017-11-13T00:56:51.656Z,0
2017-11-13T00:57:51.639Z,0
2017-11-13T00:58:50.921Z,0
2017-11-13T00:59:51.250Z,0
2017-11-13T01:00:51.587Z,0
2017-11-13T01:01:51.907Z,0
2017-11-13T01:02:51.211Z,0
2017-11-13T01:03:50.831Z,0
2017-11-13T01:04:51.530Z,0
2017-11-13T01:05:51.487Z,0
2017-11-13T01:06:51.141Z,0
2017-11-13T01:07:51.122Z,0
2017-11-13T01:08:51.440Z,0
2017-11-13T01:09:51.065Z,0
2017-11-13T01:10:51.073Z,0
2017-11-13T01:11:50.690Z,0
2017-11-13T01:12:52.076Z,0
2017-11-13T01:13:51.706Z,0
2017-11-13T01:14:51.702Z,0
2017-11-13T01:15:51.658Z,0
2017-11-13T01:16:50.960Z,0
2017-11-13T01:17:51.345Z,0
2017-11-13T01:18:51.274Z,0
2017-11-13T01:19:51.612Z,0
2017-11-13T01:20:50.881Z,0
2017-11-13T01:21:51.205Z,0
2017-11-13T01:22:50.844Z,0
2017-11-13T01:23:50.495Z,0
2017-11-13T01:24:50.461Z,0
2017-11-13T01:25:51.140Z,0
2017-11-13T01:26:50.771Z,0
2017-11-13T01:27:50.770Z,0
2017-11-13T01:28:50.734Z,0
2017-11-13T01:29:50.378Z,0
2017-11-13T01:30:51.079Z,0
2017-11-13T01:31:50.342Z,0
2017-11-13T01:32:50.352Z,0
2017-11-13T01:33:50.989Z,0
2017-11-13T01:34:50.978Z,0
2017-11-13T01:35:50.629Z,0
2017-11-13T01:36:50.952Z,0
2017-11-13T01:37:50.930Z,0
2017-11-13T01:38:50.576Z,0
2017-11-13T01:39:50.221Z,0
2017-11-13T01:40:50.525Z,0
2017-11-13T01:41:50.166Z,0
2017-11-13T01:42:50.148Z,0
2017-11-13T01:43:51.173Z,0
2017-11-13T01:44:50.454Z,0
2017-11-13T01:45:50.446Z,0
2017-11-13T01:46:50.418Z,0
2017-11-13T01:47:50.406Z,0
2017-11-13T01:48:50.384Z,0
2017-11-13T01:49:51.050Z,0
2017-11-13T01:50:50.347Z,0
2017-11-13T01:51:50.334Z,0
2017-11-13T01:52:49.977Z,0
2017-11-13T01:53:51.024Z,0
2017-11-13T01:54:50.628Z,0
2017-11-13T01:55:50.610Z,0
2017-11-13T01:56:50.979Z,0
2017-11-13T01:57:50.244Z,0
2017-11-13T01:58:50.556Z,0
2017-11-13T01:59:49.860Z,0
2017-11-13T02:00:50.516Z,0
2017-11-13T02:01:51.196Z,0
2017-11-13T02:02:50.160Z,0
2017-11-13T02:03:50.328Z,0
2017-11-13T02:04:50.445Z,0
2017-11-13T02:05:50.445Z,0
2017-11-13T02:06:50.068Z,0
2017-11-13T02:07:50.061Z,0
2017-11-13T02:08:50.045Z,0
2017-11-13T02:09:50.703Z,0
2017-11-13T02:10:49.998Z,0
2017-11-13T02:11:50.350Z,0
2017-11-13T02:12:49.976Z,0
2017-11-13T02:13:49.943Z,0
2017-11-13T02:14:49.953Z,0
2017-11-13T02:15:50.612Z,0
2017-11-13T02:16:50.576Z,0
2017-11-13T02:17:49.880Z,0
2017-11-13T02:18:50.213Z,0
2017-11-13T02:19:50.181Z,0
2017-11-13T02:20:50.518Z,0
2017-11-13T02:21:49.823Z,0
2017-11-13T02:22:49.800Z,0
2017-11-13T02:23:50.108Z,0
2017-11-13T02:24:49.408Z,0
2017-11-13T02:25:49.731Z,0
2017-11-13T02:26:49.378Z,0
2017-11-13T02:27:50.085Z,0
2017-11-13T02:28:49.702Z,0
2017-11-13T02:29:50.016Z,0
2017-11-13T02:30:49.644Z,0
2017-11-13T02:31:50.362Z,0
2017-11-13T02:32:50.303Z,0
2017-11-13T02:33:49.593Z,0
2017-11-13T02:34:49.586Z,0
2017-11-13T02:35:49.934Z,0
2017-11-13T02:36:49.550Z,0
2017-11-13T02:37:50.226Z,0
2017-11-13T02:38:50.545Z,0
2017-11-13T02:39:50.179Z,0
2017-11-13T02:40:49.818Z,0
2017-11-13T02:41:49.116Z,0
2017-11-13T02:42:49.784Z,0
2017-11-13T02:43:50.446Z,0
2017-11-13T02:44:50.116Z,0
2017-11-13T02:45:49.726Z,0
2017-11-13T02:46:50.391Z,0
2017-11-13T02:47:49.366Z,0
2017-11-13T02:48:49.731Z,0
2017-11-13T02:49:49.317Z,0
2017-11-13T02:50:50.337Z,0
2017-11-13T02:51:49.310Z,0
2017-11-13T02:52:49.620Z,0
2017-11-13T02:53:50.299Z,0
2017-11-13T02:54:48.877Z,0
2017-11-13T02:55:49.570Z,0
2017-11-13T02:56:49.569Z,0
2017-11-13T02:57:49.509Z,0
2017-11-13T02:58:50.202Z,0
2017-11-13T02:59:49.160Z,0
2017-11-13T03:00:49.806Z,0
2017-11-13T03:01:50.147Z,0
2017-11-13T03:02:49.762Z,0
2017-11-13T03:03:49.080Z,0
2017-11-13T03:04:49.748Z,0
2017-11-13T03:05:49.022Z,0
2017-11-13T03:06:49.378Z,0
2017-11-13T03:07:49.345Z,0
2017-11-13T03:08:48.641Z,0
2017-11-13T03:09:49.306Z,0
2017-11-13T03:10:48.958Z,0
2017-11-13T03:11:49.306Z,0
2017-11-13T03:12:49.257Z,0
2017-11-13T03:13:48.544Z,0
2017-11-13T03:14:48.881Z,0
2017-11-13T03:15:48.857Z,0
2017-11-13T03:16:49.199Z,0
2017-11-13T03:17:49.498Z,0
2017-11-13T03:18:48.797Z,0
2017-11-13T03:19:49.492Z,0
2017-11-13T03:20:49.467Z,0
2017-11-13T03:21:48.749Z,0
2017-11-13T03:22:49.448Z,0
2017-11-13T03:23:48.722Z,0
2017-11-13T03:24:48.720Z,0
2017-11-13T03:25:48.676Z,0
2017-11-13T03:26:48.681Z,0
2017-11-13T03:27:48.993Z,0
2017-11-13T03:28:49.359Z,0
2017-11-13T03:29:48.604Z,0
2017-11-13T03:30:49.322Z,0
2017-11-13T03:31:48.931Z,0
2017-11-13T03:32:48.904Z,0
2017-11-13T03:33:48.891Z,0
2017-11-13T03:34:48.881Z,0
2017-11-13T03:35:48.514Z,0
2017-11-13T03:36:48.142Z,0
2017-11-13T03:37:48.482Z,0
2017-11-13T03:38:48.454Z,0
2017-11-13T03:39:49.127Z,0
2017-11-13T03:40:48.760Z,0
2017-11-13T03:41:48.052Z,0
2017-11-13T03:42:48.384Z,0
2017-11-13T03:43:48.728Z,0
2017-11-13T03:44:48.697Z,0
2017-11-13T03:45:48.335Z,0
2017-11-13T03:46:48.654Z,0
2017-11-13T03:47:48.998Z,0
2017-11-13T03:48:47.929Z,0
2017-11-13T03:49:48.684Z,0
2017-11-13T03:50:48.238Z,0
2017-11-13T03:51:48.575Z,0
2017-11-13T03:52:48.202Z,0
2017-11-13T03:53:48.207Z,0
2017-11-13T03:54:48.525Z,0
2017-11-13T03:55:49.184Z,0
2017-11-13T03:56:48.820Z,0
2017-11-13T03:57:48.114Z,0
2017-11-13T03:58:48.793Z,0
2017-11-13T03:59:48.432Z,0
2017-11-13T04:00:48.405Z,0
2017-11-13T04:01:47.701Z,0
2017-11-13T04:02:48.722Z,0
2017-11-13T04:03:48.715Z,0
2017-11-13T04:04:48.718Z,0
2017-11-13T04:05:48.328Z,0
2017-11-13T04:06:47.957Z,0
2017-11-13T04:07:48.283Z,0
2017-11-13T04:08:48.293Z,0
2017-11-13T04:09:47.903Z,0
2017-11-13T04:10:47.897Z,0
2017-11-13T04:11:48.559Z,0
2017-11-13T04:12:48.198Z,0
2017-11-13T04:13:47.860Z,0
2017-11-13T04:14:47.473Z,0
2017-11-13T04:15:48.488Z,0
2017-11-13T04:16:47.438Z,0
2017-11-13T04:17:48.116Z,0
2017-11-13T04:18:48.098Z,0
2017-11-13T04:19:48.421Z,0
2017-11-13T04:20:47.371Z,0
2017-11-13T04:21:48.050Z,0
2017-11-13T04:22:48.383Z,0
2017-11-13T04:23:48.367Z,0
2017-11-13T04:24:47.680Z,0
2017-11-13T04:25:47.622Z,0
2017-11-13T04:26:47.614Z,0
2017-11-13T04:27:48.295Z,0
2017-11-13T04:28:47.604Z,0
2017-11-13T04:29:47.212Z,0
2017-11-13T04:30:47.545Z,0
2017-11-13T04:31:48.203Z,0
2017-11-13T04:32:47.528Z,0
2017-11-13T04:33:47.146Z,0
2017-11-13T04:34:47.806Z,0
2017-11-13T04:35:47.452Z,0
2017-11-13T04:36:47.789Z,0
2017-11-13T04:37:47.466Z,0
2017-11-13T04:38:48.098Z,0
2017-11-13T04:39:47.396Z,0
2017-11-13T04:40:47.355Z,0
2017-11-13T04:41:46.997Z,0
2017-11-13T04:42:47.323Z,0
2017-11-13T04:43:47.353Z,0
2017-11-13T04:44:47.636Z,0
2017-11-13T04:45:47.272Z,0
2017-11-13T04:46:47.256Z,0
2017-11-13T04:47:47.235Z,0
2017-11-13T04:48:47.219Z,0
2017-11-13T04:49:47.540Z,0
2017-11-13T04:50:47.538Z,0
2017-11-13T04:51:47.171Z,0
2017-11-13T04:52:47.491Z,0
2017-11-13T04:53:47.515Z,0
2017-11-13T04:54:46.781Z,0
2017-11-13T04:55:47.783Z,0
2017-11-13T04:56:47.782Z,0
2017-11-13T04:57:47.752Z,0
2017-11-13T04:58:48.110Z,0
2017-11-13T04:59:46.683Z,0
2017-11-13T05:00:47.714Z,0
2017-11-13T05:01:47.023Z,0
2017-11-13T05:02:46.644Z,0
2017-11-13T05:03:47.324Z,0
2017-11-13T05:04:47.983Z,0
2017-11-13T05:05:46.920Z,0
2017-11-13T05:06:47.241Z,0
2017-11-13T05:07:47.297Z,0
2017-11-13T05:08:47.213Z,0
2017-11-13T05:09:47.240Z,0
2017-11-13T05:10:47.527Z,0
2017-11-13T05:11:46.819Z,0
2017-11-13T05:12:47.532Z,0
2017-11-13T05:13:47.459Z,0
2017-11-13T05:14:46.766Z,0
2017-11-13T05:15:46.756Z,0
2017-11-13T05:16:47.811Z,0
2017-11-13T05:17:47.403Z,0
2017-11-13T05:18:46.689Z,0
2017-11-13T05:19:46.686Z,0
2017-11-13T05:20:47.000Z,0
2017-11-13T05:21:47.024Z,0
2017-11-13T05:22:46.282Z,0
2017-11-13T05:23:46.261Z,0
2017-11-13T05:24:46.934Z,0
2017-11-13T05:25:46.242Z,0
2017-11-13T05:26:46.549Z,0
2017-11-13T05:27:47.241Z,0
2017-11-13T05:28:46.522Z,0
2017-11-13T05:29:46.839Z,0
2017-11-13T05:30:46.840Z,0
2017-11-13T05:31:46.469Z,0
2017-11-13T05:32:47.122Z,0
2017-11-13T05:33:46.792Z,0
2017-11-13T05:34:47.450Z,0
2017-11-13T05:35:46.742Z,0
2017-11-13T05:36:46.380Z,0
2017-11-13T05:37:46.706Z,0
2017-11-13T05:38:46.692Z,0
2017-11-13T05:39:46.676Z,0
2017-11-13T05:40:47.009Z,0
2017-11-13T05:41:46.291Z,0
2017-11-13T05:42:46.272Z,0
2017-11-13T05:43:45.917Z,0
2017-11-13T05:44:46.243Z,0
2017-11-13T05:45:46.921Z,0
2017-11-13T05:46:46.550Z,0
2017-11-13T05:47:46.547Z,0
2017-11-13T05:48:46.176Z,0
2017-11-13T05:49:46.153Z,0
2017-11-13T05:50:46.824Z,0
2017-11-13T05:51:46.805Z,0
2017-11-13T05:52:45.777Z,0
2017-11-13T05:53:47.153Z,0
2017-11-13T05:54:46.271Z,0
2017-11-13T05:55:46.407Z,0
2017-11-13T05:56:46.371Z,0
2017-11-13T05:57:46.019Z,0
2017-11-13T05:58:46.358Z,0
2017-11-13T05:59:46.352Z,0
2017-11-13T06:00:46.658Z,0
2017-11-13T06:01:45.952Z,0
2017-11-13T06:02:46.265Z,0
2017-11-13T06:03:45.921Z,0
2017-11-13T06:04:45.546Z,0
2017-11-13T06:05:46.240Z,0
2017-11-13T06:06:46.214Z,0
2017-11-13T06:07:46.211Z,0
2017-11-13T06:08:45.489Z,0
2017-11-13T06:09:46.151Z,0
2017-11-13T06:10:45.809Z,0
2017-11-13T06:11:46.112Z,0
2017-11-13T06:12:46.441Z,0
2017-11-13T06:13:46.081Z,0
2017-11-13T06:14:45.371Z,0
2017-11-13T06:15:46.054Z,0
2017-11-13T06:16:45.340Z,0
2017-11-13T06:17:45.698Z,0
2017-11-13T06:18:46.011Z,0
2017-11-13T06:19:46.012Z,0
2017-11-13T06:20:46.298Z,0
2017-11-13T06:21:46.296Z,0
2017-11-13T06:22:45.946Z,0
2017-11-13T06:23:45.908Z,0
2017-11-13T06:24:45.549Z,0
2017-11-13T06:25:45.905Z,5
2017-11-13T06:26:46.203Z,5
2017-11-13T06:27:45.496Z,5
2017-11-13T06:28:45.837Z,5
2017-11-13T06:29:45.467Z,5
2017-11-13T06:30:45.818Z,5
2017-11-13T06:31:45.428Z,5
2017-11-13T06:32:46.116Z,5
2017-11-13T06:33:45.733Z,5
2017-11-13T06:34:45.744Z,5
2017-11-13T06:35:45.707Z,10
2017-11-13T06:36:45.708Z,10
2017-11-13T06:37:45.666Z,10
2017-11-13T06:38:45.647Z,10
2017-11-13T06:39:45.288Z,10
2017-11-13T06:40:45.616Z,10
2017-11-13T06:41:45.599Z,10
2017-11-13T06:42:45.233Z,10
2017-11-13T06:43:45.232Z,10
2017-11-13T06:44:45.200Z,10
2017-11-13T06:45:45.521Z,10
2017-11-13T06:46:45.171Z,10
2017-11-13T06:47:45.837Z,10
2017-11-13T06:48:45.825Z,15
2017-11-13T06:49:45.123Z,15
2017-11-13T06:50:45.467Z,15
2017-11-13T06:51:45.422Z,15
2017-11-13T06:52:45.065Z,15
2017-11-13T06:53:45.390Z,15
2017-11-13T06:54:44.681Z,20
2017-11-13T06:55:45.364Z,20
2017-11-13T06:56:45.353Z,20
2017-11-13T06:57:45.317Z,25
2017-11-13T06:58:45.307Z,25
2017-11-13T06:59:44.979Z,25
2017-11-13T07:00:44.593Z,30
2017-11-13T07:01:45.251Z,30
2017-11-13T07:02:44.556Z,30
2017-11-13T07:03:44.909Z,30
2017-11-13T07:04:45.563Z,30
2017-11-13T07:05:45.525Z,30
2017-11-13T07:06:45.506Z,30
2017-11-13T07:07:45.498Z,25
2017-11-13T07:08:44.795Z,25
2017-11-13T07:09:45.142Z,25
2017-11-13T07:10:45.454Z,25
2017-11-13T07:11:45.092Z,25
2017-11-13T07:12:45.425Z,25
2017-11-13T07:13:45.044Z,25
2017-11-13T07:14:44.336Z,20
2017-11-13T07:15:45.358Z,25
2017-11-13T07:16:44.645Z,25
2017-11-13T07:17:44.629Z,30
2017-11-13T07:18:44.629Z,30
2017-11-13T07:19:44.596Z,35
2017-11-13T07:20:44.961Z,35
2017-11-13T07:21:44.215Z,40
2017-11-13T07:22:44.543Z,40
2017-11-13T07:23:45.588Z,40
2017-11-13T07:24:44.854Z,40
2017-11-13T07:25:44.154Z,40
2017-11-13T07:26:44.477Z,45
2017-11-13T07:27:44.452Z,50
2017-11-13T07:28:44.455Z,55
2017-11-13T07:29:44.782Z,50
2017-11-13T07:30:45.105Z,50
2017-11-13T07:31:45.075Z,50
2017-11-13T07:32:44.036Z,55
2017-11-13T07:33:44.714Z,60
2017-11-13T07:34:45.034Z,65
2017-11-13T07:35:44.696Z,65
2017-11-13T07:36:44.666Z,70
2017-11-13T07:37:44.979Z,65
2017-11-13T07:38:44.619Z,60
2017-11-13T07:39:44.255Z,55
2017-11-13T07:40:44.233Z,55
2017-11-13T07:41:44.564Z,50
2017-11-13T07:42:44.205Z,50
2017-11-13T07:43:44.584Z,50
2017-11-13T07:44:44.520Z,55
2017-11-13T07:45:44.500Z,65
2017-11-13T07:46:44.152Z,70
2017-11-13T07:47:44.812Z,70
2017-11-13T07:48:44.102Z,70
2017-11-13T07:49:44.773Z,70
2017-11-13T07:50:43.722Z,80
2017-11-13T07:51:43.705Z,90
2017-11-13T07:52:44.406Z,95
2017-11-13T07:53:45.053Z,100
2017-11-13T07:54:43.997Z,95
2017-11-13T07:55:44.324Z,95
2017-11-13T07:56:43.635Z,100
2017-11-13T07:57:44.292Z,105
2017-11-13T07:58:44.289Z,105
2017-11-13T07:59:43.911Z,105
2017-11-13T08:00:44.615Z,105
2017-11-13T08:01:44.247Z,110
2017-11-13T08:02:44.216Z,120
2017-11-13T08:03:43.508Z,125
2017-11-13T08:04:44.180Z,125
2017-11-13T08:05:44.849Z,125
2017-11-13T08:06:44.139Z,130
2017-11-13T08:07:44.121Z,135
2017-11-13T08:08:44.441Z,140
2017-11-13T08:09:43.415Z,140
2017-11-13T08:10:43.728Z,130
2017-11-13T08:11:44.110Z,110
2017-11-13T08:12:43.750Z,100
2017-11-13T08:13:44.384Z,100
2017-11-13T08:14:43.335Z,90
2017-11-13T08:15:43.655Z,85
2017-11-13T08:16:43.624Z,75
2017-11-13T08:17:43.616Z,65
2017-11-13T08:18:43.982Z,55
2017-11-13T08:19:43.580Z,55
2017-11-13T08:20:43.973Z,55
2017-11-13T08:21:44.251Z,60
2017-11-13T08:22:43.894Z,75
2017-11-13T08:23:44.566Z,90
2017-11-13T08:24:43.846Z,100
2017-11-13T08:25:44.166Z,105
2017-11-13T08:26:44.501Z,115
2017-11-13T08:27:43.790Z,120
2017-11-13T08:28:43.450Z,120
2017-11-13T08:29:44.108Z,125
2017-11-13T08:30:43.745Z,125
2017-11-13T08:31:43.732Z,115
2017-11-13T08:32:43.713Z,105
2017-11-13T08:33:43.344Z,105
2017-11-13T08:34:43.337Z,95
2017-11-13T08:35:43.654Z,80
2017-11-13T08:36:44.002Z,80
2017-11-13T08:37:44.370Z,80
2017-11-13T08:38:43.646Z,85
2017-11-13T08:39:43.926Z,95
2017-11-13T08:40:43.598Z,105
2017-11-13T08:41:43.926Z,105
2017-11-13T08:42:43.892Z,105
2017-11-13T08:43:43.174Z,115
2017-11-13T08:44:43.858Z,130
2017-11-13T08:45:43.832Z,135
2017-11-13T08:46:43.474Z,145
2017-11-13T08:47:43.455Z,135
2017-11-13T08:48:43.794Z,120
2017-11-13T08:49:43.078Z,120
2017-11-13T08:50:43.748Z,115
2017-11-13T08:51:42.698Z,110
2017-11-13T08:52:43.390Z,120
2017-11-13T08:53:43.703Z,125
2017-11-13T08:54:42.649Z,135
2017-11-13T08:55:42.996Z,130
2017-11-13T08:56:42.619Z,150
2017-11-13T08:57:42.943Z,160
2017-11-13T08:58:42.952Z,155
2017-11-13T08:59:43.941Z,135
2017-11-13T09:00:42.913Z,130
2017-11-13T09:01:42.872Z,125
2017-11-13T09:02:42.863Z,135
2017-11-13T09:03:42.853Z,145
2017-11-13T09:04:42.829Z,150
2017-11-13T09:05:43.167Z,165
2017-11-13T09:06:43.489Z,175
2017-11-13T09:07:42.776Z,170
2017-11-13T09:08:42.413Z,160
2017-11-13T09:09:43.776Z,160
2017-11-13T09:10:42.761Z,155
2017-11-13T09:11:43.059Z,155
2017-11-13T09:12:43.385Z,160
2017-11-13T09:13:43.708Z,170
2017-11-13T09:14:42.318Z,175
2017-11-13T09:15:42.997Z,175
2017-11-13T09:16:42.282Z,170
2017-11-13T09:17:42.621Z,170
2017-11-13T09:18:42.595Z,175
2017-11-13T09:19:42.970Z,175
2017-11-13T09:20:42.562Z,180
2017-11-13T09:21:42.900Z,185
2017-11-13T09:22:43.083Z,190
2017-11-13T09:23:42.855Z,180
2017-11-13T09:24:42.846Z,170
2017-11-13T09:25:43.188Z,165
2017-11-13T09:26:42.469Z,165
2017-11-13T09:27:43.476Z,175
2017-11-13T09:28:42.788Z,190
2017-11-13T09:29:43.149Z,205
2017-11-13T09:30:42.762Z,235
2017-11-13T09:31:42.460Z,245
2017-11-13T09:32:43.064Z,230
2017-11-13T09:33:42.707Z,215
2017-11-13T09:34:42.333Z,205
2017-11-13T09:35:42.325Z,190
2017-11-13T09:36:43.009Z,185
2017-11-13T09:37:41.941Z,180
2017-11-13T09:38:42.623Z,185
2017-11-13T09:39:42.255Z,185
2017-11-13T09:40:42.924Z,195
2017-11-13T09:41:42.970Z,210
2017-11-13T09:42:42.566Z,210
2017-11-13T09:43:42.876Z,190
2017-11-13T09:44:42.539Z,160
2017-11-13T09:45:42.501Z,140
2017-11-13T09:46:42.486Z,140
2017-11-13T09:47:42.495Z,140
2017-11-13T09:48:42.200Z,140
2017-11-13T09:49:42.095Z,140
2017-11-13T09:50:42.792Z,145
2017-11-13T09:51:42.406Z,150
2017-11-13T09:52:42.737Z,145
2017-11-13T09:53:42.376Z,165
2017-11-13T09:54:42.698Z,180
2017-11-13T09:55:42.360Z,215
2017-11-13T09:56:43.028Z,230
2017-11-13T09:57:42.327Z,235
2017-11-13T09:58:41.953Z,255
2017-11-13T09:59:42.294Z,255
2017-11-13T10:00:42.600Z,245
2017-11-13T10:01:41.915Z,240
2017-11-13T10:02:41.906Z,235
2017-11-13T10:03:41.873Z,235
2017-11-13T10:04:42.212Z,220
2017-11-13T10:05:42.556Z,230
2017-11-13T10:06:42.180Z,220
2017-11-13T10:07:41.467Z,225
2017-11-13T10:08:41.451Z,220
2017-11-13T10:09:42.122Z,205
2017-11-13T10:10:42.479Z,185
2017-11-13T10:11:41.746Z,165
2017-11-13T10:12:42.089Z,140
2017-11-13T10:13:41.736Z,135
2017-11-13T10:14:41.711Z,130
2017-11-13T10:15:41.704Z,130
2017-11-13T10:16:42.242Z,120
2017-11-13T10:17:42.397Z,130
2017-11-13T10:18:41.296Z,140
2017-11-13T10:19:41.970Z,140
2017-11-13T10:20:41.956Z,145
2017-11-13T10:21:41.946Z,140
2017-11-13T10:22:42.608Z,125
2017-11-13T10:23:41.574Z,125
2017-11-13T10:24:41.898Z,135
2017-11-13T10:25:41.882Z,125
2017-11-13T10:26:41.523Z,120
2017-11-13T10:27:41.855Z,110
2017-11-13T10:28:41.485Z,110
2017-11-13T10:29:41.480Z,110
2017-11-13T10:30:41.846Z,115
2017-11-13T10:31:41.777Z,130
2017-11-13T10:32:41.412Z,150
2017-11-13T10:33:42.126Z,160
2017-11-13T10:34:41.393Z,175
2017-11-13T10:35:41.722Z,195
2017-11-13T10:36:41.383Z,180
2017-11-13T10:37:41.689Z,165
2017-11-13T10:38:41.678Z,155
2017-11-13T10:39:40.961Z,135
2017-11-13T10:40:41.667Z,120
2017-11-13T10:41:41.283Z,120
2017-11-13T10:42:41.282Z,125
2017-11-13T10:43:41.244Z,130
2017-11-13T10:44:41.917Z,120
2017-11-13T10:45:41.947Z,135
2017-11-13T10:46:40.848Z,145
2017-11-13T10:47:41.536Z,150
2017-11-13T10:48:40.819Z,165
2017-11-13T10:49:41.166Z,180
2017-11-13T10:50:40.787Z,195
2017-11-13T10:51:41.456Z,215
2017-11-13T10:52:41.444Z,225
2017-11-13T10:53:41.102Z,210
2017-11-13T10:54:41.492Z,165
2017-11-13T10:55:41.103Z,120
2017-11-13T10:56:41.739Z,100
2017-11-13T10:57:41.016Z,105
2017-11-13T10:58:42.050Z,105
2017-11-13T10:59:41.340Z,105
2017-11-13T11:00:41.700Z,115
2017-11-13T11:01:41.647Z,125
2017-11-13T11:02:41.979Z,140
2017-11-13T11:03:40.944Z,145
2017-11-13T11:04:40.905Z,145
2017-11-13T11:05:40.905Z,145
2017-11-13T11:06:41.244Z,150
2017-11-13T11:07:40.514Z,145
2017-11-13T11:08:41.189Z,145
2017-11-13T11:09:41.511Z,155
2017-11-13T11:10:41.173Z,175
2017-11-13T11:11:41.485Z,165
2017-11-13T11:12:41.130Z,185
2017-11-13T11:13:41.466Z,200
2017-11-13T11:14:41.443Z,255
2017-11-13T11:15:40.746Z,310
2017-11-13T11:16:40.409Z,290
2017-11-13T11:17:41.065Z,275
2017-11-13T11:18:41.761Z,265
2017-11-13T11:19:41.020Z,250
2017-11-13T11:20:40.652Z,230
2017-11-13T11:21:40.653Z,230
2017-11-13T11:22:40.984Z,250
2017-11-13T11:23:40.659Z,265
2017-11-13T11:24:41.298Z,230
2017-11-13T11:25:40.246Z,215
2017-11-13T11:26:40.560Z,220
2017-11-13T11:27:40.567Z,230
2017-11-13T11:28:40.536Z,210
2017-11-13T11:29:41.219Z,185
2017-11-13T11:30:40.504Z,170
2017-11-13T11:31:40.493Z,185
2017-11-13T11:32:41.503Z,195
2017-11-13T11:33:40.457Z,210
2017-11-13T11:34:40.788Z,250
2017-11-13T11:35:41.127Z,285
2017-11-13T11:36:40.758Z,255
2017-11-13T11:37:40.741Z,230
2017-11-13T11:38:40.727Z,240
2017-11-13T11:39:41.066Z,260
2017-11-13T11:40:41.381Z,275
2017-11-13T11:41:40.340Z,285
2017-11-13T11:42:39.989Z,290
2017-11-13T11:43:40.648Z,260
2017-11-13T11:44:40.998Z,295
2017-11-13T11:45:40.279Z,305
2017-11-13T11:46:40.964Z,300
2017-11-13T11:47:40.258Z,310
2017-11-13T11:48:40.232Z,340
2017-11-13T11:49:40.903Z,360
2017-11-13T11:50:40.573Z,355
2017-11-13T11:51:40.527Z,330
2017-11-13T11:52:40.525Z,320
2017-11-13T11:53:40.554Z,315
2017-11-13T11:54:39.819Z,310
2017-11-13T11:55:40.130Z,300
2017-11-13T11:56:40.800Z,285
2017-11-13T11:57:40.458Z,265
2017-11-13T11:58:40.110Z,245
2017-11-13T11:59:40.440Z,230
2017-11-13T12:00:40.411Z,215
2017-11-13T12:01:40.743Z,210
2017-11-13T12:02:40.372Z,210
2017-11-13T12:03:39.671Z,225
2017-11-13T12:04:40.355Z,250
2017-11-13T12:05:40.333Z,285
2017-11-13T12:06:40.656Z,315
2017-11-13T12:07:40.343Z,280
2017-11-13T12:08:40.315Z,275
2017-11-13T12:09:40.271Z,280
2017-11-13T12:10:40.258Z,265
2017-11-13T12:11:39.574Z,235
2017-11-13T12:12:40.256Z,205
2017-11-13T12:13:40.223Z,175
2017-11-13T12:14:40.217Z,165
2017-11-13T12:15:40.185Z,155
2017-11-13T12:16:39.820Z,140
2017-11-13T12:17:39.815Z,140
2017-11-13T12:18:39.800Z,130
2017-11-13T12:19:40.467Z,130
2017-11-13T12:20:39.423Z,165
2017-11-13T12:21:39.747Z,185
2017-11-13T12:22:39.733Z,285
2017-11-13T12:23:39.741Z,285
2017-11-13T12:24:40.055Z,215
2017-11-13T12:25:39.693Z,260
2017-11-13T12:26:40.380Z,260
2017-11-13T12:27:43.861Z,275
2017-11-13T12:28:39.988Z,290
2017-11-13T12:29:39.977Z,225
2017-11-13T12:30:40.646Z,220
2017-11-13T12:31:39.610Z,220
2017-11-13T12:32:39.949Z,170
2017-11-13T12:33:39.929Z,150
2017-11-13T12:34:39.597Z,145
2017-11-13T12:35:39.544Z,165
2017-11-13T12:36:39.528Z,170
2017-11-13T12:37:39.876Z,175
2017-11-13T12:38:40.211Z,190
2017-11-13T12:39:39.851Z,190
2017-11-13T12:40:39.835Z,205
2017-11-13T12:41:40.142Z,170
2017-11-13T12:42:40.496Z,165
2017-11-13T12:43:39.430Z,180
2017-11-13T12:44:39.426Z,235
2017-11-13T12:45:39.741Z,280
2017-11-13T12:46:39.386Z,285
2017-11-13T12:47:39.738Z,305
2017-11-13T12:48:39.703Z,295
2017-11-13T12:49:39.681Z,260
2017-11-13T12:50:39.324Z,265
2017-11-13T12:51:39.311Z,290
2017-11-13T12:52:39.302Z,300
2017-11-13T12:53:39.285Z,230
2017-11-13T12:54:39.271Z,195
2017-11-13T12:55:40.302Z,205
2017-11-13T12:56:39.238Z,210
2017-11-13T12:57:39.589Z,210
2017-11-13T12:58:39.557Z,215
2017-11-13T12:59:39.201Z,280
2017-11-13T13:00:39.183Z,340
2017-11-13T13:01:39.204Z,375
2017-11-13T13:02:39.513Z,320
2017-11-13T13:03:39.556Z,260
2017-11-13T13:04:40.188Z,200
2017-11-13T13:05:38.764Z,175
2017-11-13T13:06:39.436Z,150
2017-11-13T13:07:39.442Z,160
2017-11-13T13:08:41.146Z,160
2017-11-13T13:09:39.740Z,170
2017-11-13T13:10:39.045Z,175
2017-11-13T13:11:39.378Z,190
2017-11-13T13:12:39.357Z,200
2017-11-13T13:13:39.695Z,215
2017-11-13T13:14:39.681Z,215
2017-11-13T13:15:39.656Z,210
2017-11-13T13:16:38.949Z,220
2017-11-13T13:17:38.941Z,245
2017-11-13T13:18:39.615Z,220
2017-11-13T13:19:39.270Z,215
2017-11-13T13:20:39.271Z,230
2017-11-13T13:21:38.906Z,230
2017-11-13T13:22:39.232Z,245
2017-11-13T13:23:39.550Z,250
2017-11-13T13:24:39.183Z,230
2017-11-13T13:25:39.507Z,200
2017-11-13T13:26:39.501Z,195
2017-11-13T13:27:39.830Z,195
2017-11-13T13:28:39.125Z,210
2017-11-13T13:29:39.116Z,200
2017-11-13T13:30:39.093Z,160
2017-11-13T13:31:39.093Z,155
2017-11-13T13:32:39.084Z,145
2017-11-13T13:33:39.396Z,140
2017-11-13T13:34:39.049Z,110
2017-11-13T13:35:38.336Z,90
2017-11-13T13:36:38.687Z,95
2017-11-13T13:37:38.672Z,105
2017-11-13T13:38:38.979Z,140
2017-11-13T13:39:38.626Z,130
2017-11-13T13:40:38.602Z,130
2017-11-13T13:41:38.589Z,135
2017-11-13T13:42:38.960Z,135
2017-11-13T13:43:39.264Z,120
2017-11-13T13:44:38.907Z,115
2017-11-13T13:45:39.252Z,120
2017-11-13T13:46:38.854Z,120
2017-11-13T13:47:38.519Z,130
2017-11-13T13:48:38.827Z,130
2017-11-13T13:49:38.827Z,130
2017-11-13T13:50:38.808Z,140
2017-11-13T13:51:38.797Z,135
2017-11-13T13:52:38.762Z,130
2017-11-13T13:53:38.778Z,125
2017-11-13T13:54:39.079Z,120
2017-11-13T13:55:38.749Z,120
2017-11-13T13:56:38.754Z,115
2017-11-13T13:57:38.368Z,110
2017-11-13T13:58:38.677Z,110
2017-11-13T13:59:38.691Z,110
2017-11-13T14:00:38.011Z,115
2017-11-13T14:01:38.307Z,115
2017-11-13T14:02:38.978Z,115
2017-11-13T14:03:38.946Z,110
2017-11-13T14:04:38.607Z,105
2017-11-13T14:05:38.622Z,100
2017-11-13T14:06:38.904Z,95
2017-11-13T14:07:38.196Z,90
2017-11-13T14:08:38.190Z,90
2017-11-13T14:09:38.162Z,90
2017-11-13T14:10:38.937Z,95
2017-11-13T14:11:38.130Z,95
2017-11-13T14:12:38.165Z,90
2017-11-13T14:13:38.446Z,85
2017-11-13T14:14:39.124Z,90
2017-11-13T14:15:38.426Z,90
2017-11-13T14:16:38.054Z,85
2017-11-13T14:17:38.734Z,75